sensor_id;sensor_type;location;lat;lon;timestamp;temperature;humidity
8226;DHT22;4154;48.810;9.012;2023-03-01T00:02:20;0.20;90.40
8226;DHT22;4154;48.810;9.012;2023-03-01T00:04:47;0.20;90.40
8226;DHT22;4154;48.810;9.012;2023-03-01T00:07:13;0.10;90.40
8226;DHT22;4154;48.810;9.012;2023-03-01T00:16:58;0.00;90.40
8226;DHT22;4154;48.810;9.012;2023-03-01T00:19:24;0.00;90.60
8226;DHT22;4154;48.810;9.012;2023-03-01T00:21:50;0.00;90.60
8226;DHT22;4154;48.810;9.012;2023-03-01T00:24:16;0.00;90.60
8226;DHT22;4154;48.810;9.012;2023-03-01T00:26:42;0.40;96.30
8226;DHT22;4154;48.810;9.012;2023-03-01T00:29:08;0.00;90.70
8226;DHT22;4154;48.810;9.012;2023-03-01T00:31:33;0.00;90.60
8226;DHT22;4154;48.810;9.012;2023-03-01T00:34:02;0.00;90.60
8226;DHT22;4154;48.810;9.012;2023-03-01T00:36:31;0.00;90.60
8226;DHT22;4154;48.810;9.012;2023-03-01T00:41:25;0.00;90.50
8226;DHT22;4154;48.810;9.012;2023-03-01T00:43:52;0.00;90.60
8226;DHT22;4154;48.810;9.012;2023-03-01T00:46:21;0.00;90.40
8226;DHT22;4154;48.810;9.012;2023-03-01T00:51:20;-0.10;90.50
8226;DHT22;4154;48.810;9.012;2023-03-01T00:53:52;0.00;90.50
8226;DHT22;4154;48.810;9.012;2023-03-01T00:56:19;0.00;90.70
8226;DHT22;4154;48.810;9.012;2023-03-01T00:58:45;-0.10;90.80
8226;DHT22;4154;48.810;9.012;2023-03-01T01:01:13;-0.10;90.70
8226;DHT22;4154;48.810;9.012;2023-03-01T01:03:53;-0.10;90.80
8226;DHT22;4154;48.810;9.012;2023-03-01T01:06:26;0.00;90.60
8226;DHT22;4154;48.810;9.012;2023-03-01T01:08:54;0.00;96.50
8226;DHT22;4154;48.810;9.012;2023-03-01T01:11:22;-0.10;90.80
8226;DHT22;4154;48.810;9.012;2023-03-01T01:16:17;-0.10;90.60
8226;DHT22;4154;48.810;9.012;2023-03-01T01:18:44;-0.10;90.90
8226;DHT22;4154;48.810;9.012;2023-03-01T01:21:13;-0.20;90.90
8226;DHT22;4154;48.810;9.012;2023-03-01T01:23:41;-0.20;90.80
8226;DHT22;4154;48.810;9.012;2023-03-01T01:26:17;-0.20;90.80
8226;DHT22;4154;48.810;9.012;2023-03-01T01:31:15;-0.20;90.80
8226;DHT22;4154;48.810;9.012;2023-03-01T01:33:41;-0.20;91.00
8226;DHT22;4154;48.810;9.012;2023-03-01T01:36:07;-0.20;91.00
8226;DHT22;4154;48.810;9.012;2023-03-01T01:38:34;-0.20;91.00
8226;DHT22;4154;48.810;9.012;2023-03-01T01:41:01;-0.20;91.00
8226;DHT22;4154;48.810;9.012;2023-03-01T01:43:35;-0.20;91.00
8226;DHT22;4154;48.810;9.012;2023-03-01T01:46:32;-0.20;91.10
8226;DHT22;4154;48.810;9.012;2023-03-01T01:52:09;-0.30;91.10
8226;DHT22;4154;48.810;9.012;2023-03-01T01:54:54;-0.30;91.10
8226;DHT22;4154;48.810;9.012;2023-03-01T01:57:29;-0.30;91.00
8226;DHT22;4154;48.810;9.012;2023-03-01T02:00:02;-0.30;91.10
8226;DHT22;4154;48.810;9.012;2023-03-01T02:05:11;-0.40;91.10
8226;DHT22;4154;48.810;9.012;2023-03-01T02:07:58;-0.40;91.20
8226;DHT22;4154;48.810;9.012;2023-03-01T02:10:24;-0.50;91.20
8226;DHT22;4154;48.810;9.012;2023-03-01T02:12:54;-0.50;91.20
8226;DHT22;4154;48.810;9.012;2023-03-01T02:15:22;-0.50;91.30
8226;DHT22;4154;48.810;9.012;2023-03-01T02:17:48;-0.60;91.30
8226;DHT22;4154;48.810;9.012;2023-03-01T02:22:58;-0.60;91.50
8226;DHT22;4154;48.810;9.012;2023-03-01T02:25:32;-0.60;91.50
8226;DHT22;4154;48.810;9.012;2023-03-01T02:33:00;-0.50;91.20
8226;DHT22;4154;48.810;9.012;2023-03-01T02:35:38;-0.50;91.30
8226;DHT22;4154;48.810;9.012;2023-03-01T02:38:06;-0.50;91.40
8226;DHT22;4154;48.810;9.012;2023-03-01T02:40:34;-0.50;91.60
8226;DHT22;4154;48.810;9.012;2023-03-01T02:43:04;-0.50;91.60
8226;DHT22;4154;48.810;9.012;2023-03-01T02:45:34;-0.50;91.60
8226;DHT22;4154;48.810;9.012;2023-03-01T02:47:59;-0.50;91.60
8226;DHT22;4154;48.810;9.012;2023-03-01T02:58:39;-0.40;91.60
8226;DHT22;4154;48.810;9.012;2023-03-01T03:01:11;-0.40;91.80
8226;DHT22;4154;48.810;9.012;2023-03-01T03:03:40;-0.50;91.80
8226;DHT22;4154;48.810;9.012;2023-03-01T03:06:06;-0.50;91.90
8226;DHT22;4154;48.810;9.012;2023-03-01T03:08:32;-0.50;91.90
8226;DHT22;4154;48.810;9.012;2023-03-01T03:10:58;-0.50;92.00
8226;DHT22;4154;48.810;9.012;2023-03-01T03:13:24;-0.50;92.00
8226;DHT22;4154;48.810;9.012;2023-03-01T03:15:54;-0.40;91.90
8226;DHT22;4154;48.810;9.012;2023-03-01T03:18:22;-0.40;91.80
8226;DHT22;4154;48.810;9.012;2023-03-01T03:20:52;-0.40;91.80
8226;DHT22;4154;48.810;9.012;2023-03-01T03:23:20;-0.30;92.00
8226;DHT22;4154;48.810;9.012;2023-03-01T03:25:48;-0.30;91.60
8226;DHT22;4154;48.810;9.012;2023-03-01T03:28:15;-0.30;91.80
8226;DHT22;4154;48.810;9.012;2023-03-01T03:33:10;-0.20;91.50
8226;DHT22;4154;48.810;9.012;2023-03-01T03:35:48;-0.20;91.70
8226;DHT22;4154;48.810;9.012;2023-03-01T03:38:17;-0.10;91.70
8226;DHT22;4154;48.810;9.012;2023-03-01T03:40:47;-0.40;91.90
8226;DHT22;4154;48.810;9.012;2023-03-01T03:43:19;-0.40;92.10
8226;DHT22;4154;48.810;9.012;2023-03-01T03:45:48;-0.30;92.10
8226;DHT22;4154;48.810;9.012;2023-03-01T03:48:16;-0.40;92.20
8226;DHT22;4154;48.810;9.012;2023-03-01T03:50:47;-0.30;92.20
8226;DHT22;4154;48.810;9.012;2023-03-01T03:53:14;-0.30;92.20
8226;DHT22;4154;48.810;9.012;2023-03-01T03:58:08;-0.20;92.00
8226;DHT22;4154;48.810;9.012;2023-03-01T04:00:41;-0.20;92.20
8226;DHT22;4154;48.810;9.012;2023-03-01T04:03:08;-0.20;92.10
8226;DHT22;4154;48.810;9.012;2023-03-01T04:05:38;-0.10;92.10
8226;DHT22;4154;48.810;9.012;2023-03-01T04:08:05;-0.10;92.00
8226;DHT22;4154;48.810;9.012;2023-03-01T04:10:36;-0.20;92.10
8226;DHT22;4154;48.810;9.012;2023-03-01T04:15:30;-0.30;92.00
8226;DHT22;4154;48.810;9.012;2023-03-01T04:17:56;-0.20;92.30
8226;DHT22;4154;48.810;9.012;2023-03-01T04:20:26;-0.20;92.30
8226;DHT22;4154;48.810;9.012;2023-03-01T04:23:00;-0.30;92.30
8226;DHT22;4154;48.810;9.012;2023-03-01T04:30:37;-0.20;92.20
8226;DHT22;4154;48.810;9.012;2023-03-01T04:33:05;-0.20;92.40
8226;DHT22;4154;48.810;9.012;2023-03-01T04:35:32;-0.20;92.30
8226;DHT22;4154;48.810;9.012;2023-03-01T04:37:59;-0.20;92.30
8226;DHT22;4154;48.810;9.012;2023-03-01T04:40:25;-0.30;92.30
8226;DHT22;4154;48.810;9.012;2023-03-01T04:45:17;-0.20;92.10
8226;DHT22;4154;48.810;9.012;2023-03-01T04:47:45;-0.20;92.30
8226;DHT22;4154;48.810;9.012;2023-03-01T04:50:13;-0.20;92.60
8226;DHT22;4154;48.810;9.012;2023-03-01T04:52:41;-0.30;92.40
8226;DHT22;4154;48.810;9.012;2023-03-01T04:55:07;-0.20;92.70
8226;DHT22;4154;48.810;9.012;2023-03-01T05:00:00;-0.30;92.40
8226;DHT22;4154;48.810;9.012;2023-03-01T05:02:26;-0.30;92.50
8226;DHT22;4154;48.810;9.012;2023-03-01T05:04:52;-0.20;92.60
8226;DHT22;4154;48.810;9.012;2023-03-01T05:07:17;-0.20;92.60
8226;DHT22;4154;48.810;9.012;2023-03-01T05:09:48;-0.20;92.60
8226;DHT22;4154;48.810;9.012;2023-03-01T05:12:14;-0.10;92.60
8226;DHT22;4154;48.810;9.012;2023-03-01T05:14:41;0.00;92.50
8226;DHT22;4154;48.810;9.012;2023-03-01T05:19:33;0.00;92.40
8226;DHT22;4154;48.810;9.012;2023-03-01T05:24:31;0.00;92.40
8226;DHT22;4154;48.810;9.012;2023-03-01T05:27:00;-0.10;92.70
8226;DHT22;4154;48.810;9.012;2023-03-01T05:29:28;-0.10;92.50
8226;DHT22;4154;48.810;9.012;2023-03-01T05:31:58;-0.10;92.50
8226;DHT22;4154;48.810;9.012;2023-03-01T05:34:27;-0.10;92.70
8226;DHT22;4154;48.810;9.012;2023-03-01T05:39:24;-0.10;92.60
8226;DHT22;4154;48.810;9.012;2023-03-01T05:41:56;0.00;92.80
8226;DHT22;4154;48.810;9.012;2023-03-01T05:44:25;0.10;92.70
8226;DHT22;4154;48.810;9.012;2023-03-01T05:49:19;0.10;92.50
8226;DHT22;4154;48.810;9.012;2023-03-01T05:51:51;0.10;92.60
8226;DHT22;4154;48.810;9.012;2023-03-01T05:54:19;0.10;92.70
8226;DHT22;4154;48.810;9.012;2023-03-01T05:59:12;0.10;92.40
8226;DHT22;4154;48.810;9.012;2023-03-01T06:01:39;0.10;92.50
8226;DHT22;4154;48.810;9.012;2023-03-01T06:04:05;0.00;92.60
8226;DHT22;4154;48.810;9.012;2023-03-01T06:06:34;0.00;92.80
8226;DHT22;4154;48.810;9.012;2023-03-01T06:09:03;0.10;92.40
8226;DHT22;4154;48.810;9.012;2023-03-01T06:13:55;0.10;92.30
8226;DHT22;4154;48.810;9.012;2023-03-01T06:16:21;0.10;92.40
8226;DHT22;4154;48.810;9.012;2023-03-01T06:18:46;0.10;92.40
8226;DHT22;4154;48.810;9.012;2023-03-01T06:21:12;0.20;92.40
8226;DHT22;4154;48.810;9.012;2023-03-01T06:23:38;0.10;92.30
8226;DHT22;4154;48.810;9.012;2023-03-01T06:26:07;0.10;92.30
8226;DHT22;4154;48.810;9.012;2023-03-01T06:28:34;0.20;92.20
8226;DHT22;4154;48.810;9.012;2023-03-01T06:31:01;0.10;92.30
8226;DHT22;4154;48.810;9.012;2023-03-01T06:33:28;0.10;92.30
8226;DHT22;4154;48.810;9.012;2023-03-01T06:35:57;0.00;92.50
8226;DHT22;4154;48.810;9.012;2023-03-01T06:38:23;0.00;92.30
8226;DHT22;4154;48.810;9.012;2023-03-01T06:40:54;0.00;92.30
8226;DHT22;4154;48.810;9.012;2023-03-01T06:43:23;0.10;92.30
8226;DHT22;4154;48.810;9.012;2023-03-01T06:45:49;0.10;92.20
8226;DHT22;4154;48.810;9.012;2023-03-01T06:48:15;0.10;92.30
8226;DHT22;4154;48.810;9.012;2023-03-01T06:53:07;0.10;92.00
8226;DHT22;4154;48.810;9.012;2023-03-01T06:55:33;0.10;92.30
8226;DHT22;4154;48.810;9.012;2023-03-01T06:57:59;0.00;92.10
8226;DHT22;4154;48.810;9.012;2023-03-01T07:00:28;0.00;92.10
8226;DHT22;4154;48.810;9.012;2023-03-01T07:02:54;0.00;92.30
8226;DHT22;4154;48.810;9.012;2023-03-01T07:05:20;-0.10;92.40
8226;DHT22;4154;48.810;9.012;2023-03-01T07:07:45;-0.10;92.50
8226;DHT22;4154;48.810;9.012;2023-03-01T07:10:12;0.00;92.20
8226;DHT22;4154;48.810;9.012;2023-03-01T07:12:38;-0.10;92.30
8226;DHT22;4154;48.810;9.012;2023-03-01T07:15:04;-0.10;92.30
8226;DHT22;4154;48.810;9.012;2023-03-01T07:17:30;-0.10;92.30
8226;DHT22;4154;48.810;9.012;2023-03-01T07:19:56;-0.10;91.90
8226;DHT22;4154;48.810;9.012;2023-03-01T07:22:22;-0.10;92.10
8226;DHT22;4154;48.810;9.012;2023-03-01T07:27:14;-0.10;92.00
8226;DHT22;4154;48.810;9.012;2023-03-01T07:29:39;-0.20;92.30
8226;DHT22;4154;48.810;9.012;2023-03-01T07:32:05;-0.10;92.40
8226;DHT22;4154;48.810;9.012;2023-03-01T07:34:31;-0.10;92.20
8226;DHT22;4154;48.810;9.012;2023-03-01T07:39:23;-0.10;92.00
8226;DHT22;4154;48.810;9.012;2023-03-01T07:41:50;-0.10;92.30
8226;DHT22;4154;48.810;9.012;2023-03-01T07:44:16;-0.10;92.50
8226;DHT22;4154;48.810;9.012;2023-03-01T07:46:43;-0.20;97.80
8226;DHT22;4154;48.810;9.012;2023-03-01T07:49:08;-0.10;92.50
8226;DHT22;4154;48.810;9.012;2023-03-01T07:51:34;-0.10;92.40
8226;DHT22;4154;48.810;9.012;2023-03-01T07:54:00;-0.10;92.50
8226;DHT22;4154;48.810;9.012;2023-03-01T07:56:26;-0.10;92.70
8226;DHT22;4154;48.810;9.012;2023-03-01T08:01:19;-0.10;92.60
8226;DHT22;4154;48.810;9.012;2023-03-01T08:03:48;-0.10;92.90
8226;DHT22;4154;48.810;9.012;2023-03-01T08:06:15;-0.10;92.90
8226;DHT22;4154;48.810;9.012;2023-03-01T08:11:11;0.10;92.70
8226;DHT22;4154;48.810;9.012;2023-03-01T08:13:38;0.20;92.90
8226;DHT22;4154;48.810;9.012;2023-03-01T08:16:05;0.20;92.80
8226;DHT22;4154;48.810;9.012;2023-03-01T08:18:33;0.20;92.90
8226;DHT22;4154;48.810;9.012;2023-03-01T08:21:07;0.30;92.90
8226;DHT22;4154;48.810;9.012;2023-03-01T08:23:35;0.30;92.70
8226;DHT22;4154;48.810;9.012;2023-03-01T08:26:09;0.30;92.60
8226;DHT22;4154;48.810;9.012;2023-03-01T08:28:38;0.30;92.60
8226;DHT22;4154;48.810;9.012;2023-03-01T08:36:16;0.60;92.20
8226;DHT22;4154;48.810;9.012;2023-03-01T08:41:09;0.70;92.20
8226;DHT22;4154;48.810;9.012;2023-03-01T08:43:35;0.70;92.30
8226;DHT22;4154;48.810;9.012;2023-03-01T08:46:00;0.70;92.20
8226;DHT22;4154;48.810;9.012;2023-03-01T08:48:27;0.90;92.00
8226;DHT22;4154;48.810;9.012;2023-03-01T08:53:20;0.90;91.90
8226;DHT22;4154;48.810;9.012;2023-03-01T08:58:12;0.90;91.80
8226;DHT22;4154;48.810;9.012;2023-03-01T09:00:38;0.90;92.00
8226;DHT22;4154;48.810;9.012;2023-03-01T09:03:03;1.10;92.20
8226;DHT22;4154;48.810;9.012;2023-03-01T09:05:32;1.10;92.20
8226;DHT22;4154;48.810;9.012;2023-03-01T09:10:25;1.20;91.80
8226;DHT22;4154;48.810;9.012;2023-03-01T09:12:51;1.30;92.00
8226;DHT22;4154;48.810;9.012;2023-03-01T09:15:17;1.30;91.70
8226;DHT22;4154;48.810;9.012;2023-03-01T09:17:42;1.40;91.70
8226;DHT22;4154;48.810;9.012;2023-03-01T09:20:09;1.50;91.80
8226;DHT22;4154;48.810;9.012;2023-03-01T09:22:35;1.60;91.50
8226;DHT22;4154;48.810;9.012;2023-03-01T09:25:01;1.70;91.40
8226;DHT22;4154;48.810;9.012;2023-03-01T09:27:27;1.70;91.20
8226;DHT22;4154;48.810;9.012;2023-03-01T09:29:53;1.80;91.20
8226;DHT22;4154;48.810;9.012;2023-03-01T09:32:21;1.80;91.10
8226;DHT22;4154;48.810;9.012;2023-03-01T09:34:47;1.90;91.10
8226;DHT22;4154;48.810;9.012;2023-03-01T09:37:35;3.00;91.40
8226;DHT22;4154;48.810;9.012;2023-03-01T09:40:02;1.90;91.00
8226;DHT22;4154;48.810;9.012;2023-03-01T09:42:34;2.40;91.40
8226;DHT22;4154;48.810;9.012;2023-03-01T09:45:19;2.10;91.00
8226;DHT22;4154;48.810;9.012;2023-03-01T09:47:52;2.10;90.90
8226;DHT22;4154;48.810;9.012;2023-03-01T09:50:20;2.10;90.60
8226;DHT22;4154;48.810;9.012;2023-03-01T09:53:09;2.10;90.70
8226;DHT22;4154;48.810;9.012;2023-03-01T09:56:01;2.10;90.70
8226;DHT22;4154;48.810;9.012;2023-03-01T10:01:54;2.20;90.60
8226;DHT22;4154;48.810;9.012;2023-03-01T10:09:38;2.30;90.20
8226;DHT22;4154;48.810;9.012;2023-03-01T10:12:20;2.30;90.40
8226;DHT22;4154;48.810;9.012;2023-03-01T10:15:05;2.40;90.40
8226;DHT22;4154;48.810;9.012;2023-03-01T10:17:57;2.50;90.30
8226;DHT22;4154;48.810;9.012;2023-03-01T10:20:33;2.60;90.20
8226;DHT22;4154;48.810;9.012;2023-03-01T10:23:09;2.70;90.00
8226;DHT22;4154;48.810;9.012;2023-03-01T10:31:14;2.80;90.00
8226;DHT22;4154;48.810;9.012;2023-03-01T10:33:45;2.90;90.10
8226;DHT22;4154;48.810;9.012;2023-03-01T10:36:13;2.90;90.20
8226;DHT22;4154;48.810;9.012;2023-03-01T10:38:55;3.00;89.40
8226;DHT22;4154;48.810;9.012;2023-03-01T10:41:25;3.00;89.80
8226;DHT22;4154;48.810;9.012;2023-03-01T10:43:57;3.10;89.20
8226;DHT22;4154;48.810;9.012;2023-03-01T10:46:32;3.10;88.50
8226;DHT22;4154;48.810;9.012;2023-03-01T10:49:18;3.20;88.80
8226;DHT22;4154;48.810;9.012;2023-03-01T10:51:48;3.20;88.80
8226;DHT22;4154;48.810;9.012;2023-03-01T10:54:33;3.20;89.20
8226;DHT22;4154;48.810;9.012;2023-03-01T10:57:01;3.20;89.20
8226;DHT22;4154;48.810;9.012;2023-03-01T10:59:37;3.30;89.10
8226;DHT22;4154;48.810;9.012;2023-03-01T11:02:36;3.40;89.20
8226;DHT22;4154;48.810;9.012;2023-03-01T11:05:23;3.40;88.20
8226;DHT22;4154;48.810;9.012;2023-03-01T11:07:58;3.60;88.20
8226;DHT22;4154;48.810;9.012;2023-03-01T11:10:33;3.60;88.00
8226;DHT22;4154;48.810;9.012;2023-03-01T11:13:14;3.70;88.00
8226;DHT22;4154;48.810;9.012;2023-03-01T11:15:42;3.80;88.00
8226;DHT22;4154;48.810;9.012;2023-03-01T11:18:20;3.80;88.40
8226;DHT22;4154;48.810;9.012;2023-03-01T11:20:46;3.90;87.90
8226;DHT22;4154;48.810;9.012;2023-03-01T11:23:15;4.00;87.90
8226;DHT22;4154;48.810;9.012;2023-03-01T11:26:09;4.10;87.50
8226;DHT22;4154;48.810;9.012;2023-03-01T11:28:38;4.20;86.90
8226;DHT22;4154;48.810;9.012;2023-03-01T11:31:09;4.20;86.50
8226;DHT22;4154;48.810;9.012;2023-03-01T11:36:35;4.40;87.20
8226;DHT22;4154;48.810;9.012;2023-03-01T11:42:25;4.60;87.50
8226;DHT22;4154;48.810;9.012;2023-03-01T11:45:07;4.70;87.60
8226;DHT22;4154;48.810;9.012;2023-03-01T11:50:46;4.80;86.40
8226;DHT22;4154;48.810;9.012;2023-03-01T11:56:10;5.00;85.50
8226;DHT22;4154;48.810;9.012;2023-03-01T12:08:17;5.40;84.80
8226;DHT22;4154;48.810;9.012;2023-03-01T12:11:23;5.50;83.90
8226;DHT22;4154;48.810;9.012;2023-03-01T12:17:13;5.70;91.70
8226;DHT22;4154;48.810;9.012;2023-03-01T12:25:44;5.90;82.90
8226;DHT22;4154;48.810;9.012;2023-03-01T12:29:00;5.90;83.40
8226;DHT22;4154;48.810;9.012;2023-03-01T12:31:43;5.90;82.80
8226;DHT22;4154;48.810;9.012;2023-03-01T12:43:44;6.10;91.50
8226;DHT22;4154;48.810;9.012;2023-03-01T12:52:10;6.10;82.50
8226;DHT22;4154;48.810;9.012;2023-03-01T12:57:20;6.20;82.20
8226;DHT22;4154;48.810;9.012;2023-03-01T13:00:17;6.30;81.40
8226;DHT22;4154;48.810;9.012;2023-03-01T13:06:32;6.50;81.70
8226;DHT22;4154;48.810;9.012;2023-03-01T13:09:28;6.50;81.90
8226;DHT22;4154;48.810;9.012;2023-03-01T13:17:51;6.90;91.10
8226;DHT22;4154;48.810;9.012;2023-03-01T13:20:22;6.80;81.00
8226;DHT22;4154;48.810;9.012;2023-03-01T13:38:58;7.00;80.30
8226;DHT22;4154;48.810;9.012;2023-03-01T13:47:01;7.10;90.60
8226;DHT22;4154;48.810;9.012;2023-03-01T13:49:55;7.10;90.90
8226;DHT22;4154;48.810;9.012;2023-03-01T13:55:16;7.10;81.90
8226;DHT22;4154;48.810;9.012;2023-03-01T13:57:49;7.20;81.10
8226;DHT22;4154;48.810;9.012;2023-03-01T14:05:38;7.20;80.80
8226;DHT22;4154;48.810;9.012;2023-03-01T14:08:21;7.20;80.80
8226;DHT22;4154;48.810;9.012;2023-03-01T14:17:04;7.20;80.20
8226;DHT22;4154;48.810;9.012;2023-03-01T14:19:55;7.20;81.20
8226;DHT22;4154;48.810;9.012;2023-03-01T14:22:29;7.60;90.80
8226;DHT22;4154;48.810;9.012;2023-03-01T14:25:05;7.20;81.90
8226;DHT22;4154;48.810;9.012;2023-03-01T14:27:44;7.20;81.30
8226;DHT22;4154;48.810;9.012;2023-03-01T14:30:21;7.30;81.00
8226;DHT22;4154;48.810;9.012;2023-03-01T14:33:01;7.30;80.80
8226;DHT22;4154;48.810;9.012;2023-03-01T14:35:36;7.30;81.20
8226;DHT22;4154;48.810;9.012;2023-03-01T14:38:02;7.40;80.80
8226;DHT22;4154;48.810;9.012;2023-03-01T14:40:32;7.40;79.40
8226;DHT22;4154;48.810;9.012;2023-03-01T14:43:03;7.40;80.50
8226;DHT22;4154;48.810;9.012;2023-03-01T14:45:35;7.40;80.70
8226;DHT22;4154;48.810;9.012;2023-03-01T14:48:03;7.30;81.10
8226;DHT22;4154;48.810;9.012;2023-03-01T14:50:32;7.10;81.00
8226;DHT22;4154;48.810;9.012;2023-03-01T14:53:05;7.10;81.40
8226;DHT22;4154;48.810;9.012;2023-03-01T14:55:36;7.80;82.50
8226;DHT22;4154;48.810;9.012;2023-03-01T14:58:11;6.90;81.70
8226;DHT22;4154;48.810;9.012;2023-03-01T15:00:53;6.80;82.00
8226;DHT22;4154;48.810;9.012;2023-03-01T15:03:48;6.80;82.30
8226;DHT22;4154;48.810;9.012;2023-03-01T15:06:20;6.80;81.80
8226;DHT22;4154;48.810;9.012;2023-03-01T15:08:53;6.90;81.40
8226;DHT22;4154;48.810;9.012;2023-03-01T15:11:28;6.90;81.80
8226;DHT22;4154;48.810;9.012;2023-03-01T15:13:56;6.90;81.60
8226;DHT22;4154;48.810;9.012;2023-03-01T15:16:29;7.00;81.10
8226;DHT22;4154;48.810;9.012;2023-03-01T15:18:59;7.20;80.50
8226;DHT22;4154;48.810;9.012;2023-03-01T15:21:34;7.00;81.00
8226;DHT22;4154;48.810;9.012;2023-03-01T15:29:28;6.90;81.80
8226;DHT22;4154;48.810;9.012;2023-03-01T15:31:58;7.00;81.50
8226;DHT22;4154;48.810;9.012;2023-03-01T15:34:36;7.00;82.00
8226;DHT22;4154;48.810;9.012;2023-03-01T15:37:05;7.00;81.30
8226;DHT22;4154;48.810;9.012;2023-03-01T15:39:57;6.90;81.60
8226;DHT22;4154;48.810;9.012;2023-03-01T15:42:36;6.70;82.00
8226;DHT22;4154;48.810;9.012;2023-03-01T15:47:47;6.60;82.20
8226;DHT22;4154;48.810;9.012;2023-03-01T15:52:54;6.50;82.00
8226;DHT22;4154;48.810;9.012;2023-03-01T15:55:27;6.50;82.00
8226;DHT22;4154;48.810;9.012;2023-03-01T15:58:18;6.40;82.30
8226;DHT22;4154;48.810;9.012;2023-03-01T16:00:46;6.50;81.40
8226;DHT22;4154;48.810;9.012;2023-03-01T16:05:47;6.40;81.80
8226;DHT22;4154;48.810;9.012;2023-03-01T16:08:14;6.40;81.80
8226;DHT22;4154;48.810;9.012;2023-03-01T16:10:41;6.40;81.70
8226;DHT22;4154;48.810;9.012;2023-03-01T16:13:11;6.40;81.70
8226;DHT22;4154;48.810;9.012;2023-03-01T16:18:05;6.40;81.30
8226;DHT22;4154;48.810;9.012;2023-03-01T16:22:59;6.40;81.30
8226;DHT22;4154;48.810;9.012;2023-03-01T16:25:26;6.20;81.90
8226;DHT22;4154;48.810;9.012;2023-03-01T16:27:52;6.30;81.70
8226;DHT22;4154;48.810;9.012;2023-03-01T16:30:20;6.20;81.90
8226;DHT22;4154;48.810;9.012;2023-03-01T16:32:48;6.30;81.20
8226;DHT22;4154;48.810;9.012;2023-03-01T16:35:18;6.30;81.70
8226;DHT22;4154;48.810;9.012;2023-03-01T16:37:46;6.30;81.50
8226;DHT22;4154;48.810;9.012;2023-03-01T16:40:18;6.20;81.20
8226;DHT22;4154;48.810;9.012;2023-03-01T16:42:53;6.10;81.20
8226;DHT22;4154;48.810;9.012;2023-03-01T16:45:32;6.00;81.50
8226;DHT22;4154;48.810;9.012;2023-03-01T16:48:01;6.00;91.00
8226;DHT22;4154;48.810;9.012;2023-03-01T16:50:27;6.10;91.10
8226;DHT22;4154;48.810;9.012;2023-03-01T16:52:53;6.00;81.70
8226;DHT22;4154;48.810;9.012;2023-03-01T16:57:45;6.00;81.10
8226;DHT22;4154;48.810;9.012;2023-03-01T17:00:11;5.90;81.60
8226;DHT22;4154;48.810;9.012;2023-03-01T17:02:39;5.90;81.80
8226;DHT22;4154;48.810;9.012;2023-03-01T17:05:07;5.80;81.90
8226;DHT22;4154;48.810;9.012;2023-03-01T17:07:33;5.80;81.80
8226;DHT22;4154;48.810;9.012;2023-03-01T17:10:02;5.80;81.90
8226;DHT22;4154;48.810;9.012;2023-03-01T17:12:29;5.80;82.00
8226;DHT22;4154;48.810;9.012;2023-03-01T17:17:21;5.60;81.70
8226;DHT22;4154;48.810;9.012;2023-03-01T17:19:47;5.60;82.50
8226;DHT22;4154;48.810;9.012;2023-03-01T17:22:13;5.60;82.60
8226;DHT22;4154;48.810;9.012;2023-03-01T17:24:40;5.50;82.70
8226;DHT22;4154;48.810;9.012;2023-03-01T17:27:06;5.40;82.80
8226;DHT22;4154;48.810;9.012;2023-03-01T17:29:33;5.30;82.90
8226;DHT22;4154;48.810;9.012;2023-03-01T17:31:59;5.30;83.10
8226;DHT22;4154;48.810;9.012;2023-03-01T17:34:25;5.30;83.10
8226;DHT22;4154;48.810;9.012;2023-03-01T17:36:51;5.20;92.00
8226;DHT22;4154;48.810;9.012;2023-03-01T17:41:51;5.20;82.90
8226;DHT22;4154;48.810;9.012;2023-03-01T17:44:17;5.10;83.40
8226;DHT22;4154;48.810;9.012;2023-03-01T17:46:44;5.00;92.10
8226;DHT22;4154;48.810;9.012;2023-03-01T17:51:45;5.00;83.30
8226;DHT22;4154;48.810;9.012;2023-03-01T18:01:31;4.90;83.50
8226;DHT22;4154;48.810;9.012;2023-03-01T18:06:27;4.80;83.60
8226;DHT22;4154;48.810;9.012;2023-03-01T18:08:53;4.80;84.20
8226;DHT22;4154;48.810;9.012;2023-03-01T18:11:21;4.70;84.20
8226;DHT22;4154;48.810;9.012;2023-03-01T18:13:48;4.70;84.20
8226;DHT22;4154;48.810;9.012;2023-03-01T18:16:16;4.70;84.30
8226;DHT22;4154;48.810;9.012;2023-03-01T18:18:43;4.60;84.30
8226;DHT22;4154;48.810;9.012;2023-03-01T18:23:37;4.60;83.90
8226;DHT22;4154;48.810;9.012;2023-03-01T18:26:06;4.60;84.50
8226;DHT22;4154;48.810;9.012;2023-03-01T18:28:34;4.60;84.40
8226;DHT22;4154;48.810;9.012;2023-03-01T18:31:03;4.60;84.40
8226;DHT22;4154;48.810;9.012;2023-03-01T18:33:33;4.50;84.40
8226;DHT22;4154;48.810;9.012;2023-03-01T18:35:59;4.50;84.40
8226;DHT22;4154;48.810;9.012;2023-03-01T18:38:26;4.40;84.60
8226;DHT22;4154;48.810;9.012;2023-03-01T18:40:53;4.40;92.50
8226;DHT22;4154;48.810;9.012;2023-03-01T18:43:20;4.40;84.60
8226;DHT22;4154;48.810;9.012;2023-03-01T18:45:46;4.40;84.70
8226;DHT22;4154;48.810;9.012;2023-03-01T18:48:12;4.40;84.70
8226;DHT22;4154;48.810;9.012;2023-03-01T18:53:05;4.30;84.50
8226;DHT22;4154;48.810;9.012;2023-03-01T18:55:35;4.20;85.00
8226;DHT22;4154;48.810;9.012;2023-03-01T18:58:02;4.20;85.00
8226;DHT22;4154;48.810;9.012;2023-03-01T19:02:54;4.10;84.90
8226;DHT22;4154;48.810;9.012;2023-03-01T19:05:21;4.10;85.30
8226;DHT22;4154;48.810;9.012;2023-03-01T19:07:47;4.10;85.40
8226;DHT22;4154;48.810;9.012;2023-03-01T19:12:40;4.10;85.00
8226;DHT22;4154;48.810;9.012;2023-03-01T19:15:06;4.00;85.40
8226;DHT22;4154;48.810;9.012;2023-03-01T19:22:25;4.00;85.20
8226;DHT22;4154;48.810;9.012;2023-03-01T19:24:52;3.90;85.70
8226;DHT22;4154;48.810;9.012;2023-03-01T19:27:17;3.80;85.60
8226;DHT22;4154;48.810;9.012;2023-03-01T19:29:43;3.90;85.90
8226;DHT22;4154;48.810;9.012;2023-03-01T19:32:09;3.80;85.80
8226;DHT22;4154;48.810;9.012;2023-03-01T19:34:35;3.90;85.80
8226;DHT22;4154;48.810;9.012;2023-03-01T19:37:03;3.80;85.80
8226;DHT22;4154;48.810;9.012;2023-03-01T19:39:28;3.80;86.00
8226;DHT22;4154;48.810;9.012;2023-03-01T19:41:55;3.80;86.60
8226;DHT22;4154;48.810;9.012;2023-03-01T19:46:54;3.70;93.00
8226;DHT22;4154;48.810;9.012;2023-03-01T19:49:24;3.80;86.20
8226;DHT22;4154;48.810;9.012;2023-03-01T19:51:51;3.80;86.10
8226;DHT22;4154;48.810;9.012;2023-03-01T19:54:18;3.70;86.30
8226;DHT22;4154;48.810;9.012;2023-03-01T19:56:48;3.50;93.10
8226;DHT22;4154;48.810;9.012;2023-03-01T19:59:16;3.70;86.50
8226;DHT22;4154;48.810;9.012;2023-03-01T20:01:43;3.60;87.00
8226;DHT22;4154;48.810;9.012;2023-03-01T20:04:10;3.50;86.20
8226;DHT22;4154;48.810;9.012;2023-03-01T20:06:38;3.50;86.60
8226;DHT22;4154;48.810;9.012;2023-03-01T20:09:07;3.50;87.30
8226;DHT22;4154;48.810;9.012;2023-03-01T20:13:59;3.40;86.30
8226;DHT22;4154;48.810;9.012;2023-03-01T20:16:25;3.40;86.60
8226;DHT22;4154;48.810;9.012;2023-03-01T20:23:46;3.30;86.60
8226;DHT22;4154;48.810;9.012;2023-03-01T20:26:13;3.30;87.10
8226;DHT22;4154;48.810;9.012;2023-03-01T20:28:43;3.20;87.40
8226;DHT22;4154;48.810;9.012;2023-03-01T20:31:15;3.20;87.20
8226;DHT22;4154;48.810;9.012;2023-03-01T20:33:42;3.20;87.60
8226;DHT22;4154;48.810;9.012;2023-03-01T20:36:08;3.20;87.40
8226;DHT22;4154;48.810;9.012;2023-03-01T20:38:35;3.20;87.80
8226;DHT22;4154;48.810;9.012;2023-03-01T20:41:07;3.20;87.40
8226;DHT22;4154;48.810;9.012;2023-03-01T20:43:34;3.20;87.80
8226;DHT22;4154;48.810;9.012;2023-03-01T20:46:06;3.20;87.80
8226;DHT22;4154;48.810;9.012;2023-03-01T20:48:35;3.20;87.90
8226;DHT22;4154;48.810;9.012;2023-03-01T20:51:06;3.10;88.20
8226;DHT22;4154;48.810;9.012;2023-03-01T20:53:33;3.10;88.20
8226;DHT22;4154;48.810;9.012;2023-03-01T20:56:07;3.10;88.30
8226;DHT22;4154;48.810;9.012;2023-03-01T20:58:37;3.10;88.40
8226;DHT22;4154;48.810;9.012;2023-03-01T21:01:04;3.10;88.50